Terminal Aerodrome Forecast
Issued by NWS

Home | Current Version | Previous Version | Text Only | Print | Product List | Glossary Off
Versions: 1 2 3 4 5 6 7 8 9 10 11 12 13 14 15 16

977
FTUS43 KBIS 231645 AAB
TAFDIK
TAF AMD
KDIK 231645Z 2317/2412 32012KT P6SM FEW015 FEW035
     FM231800 30020G30KT P6SM SKC
     FM240300 30009KT P6SM SKC
     FM240900 27006KT P6SM SKC=

USA.gov is the U.S. government's official web portal to all federal, state and local government web resources and services.